Melrose, IA (52569)

12:23 PM CDT on April 29, 2017 (GMT -0500)
Lake Rathbun | | Change Station

Elev 935 ft 40.89 °N, 93.10 °W | Updated 26 seconds ago

Rain
Rain
44.0 °F
Feels Like 41 °F
N
5.0
Wind Variable Wind from East

Today
High -- | Low -- °F
--% Chance of Precip.
Yesterday
High -- | Low -- °F
Precip. -- in
Pressure 30.07 in
Visibility 2.5 miles
Clouds Mostly Cloudy 1200 ft
Windchill 41 °F
Dew Point 43 °F
Humidity 98%
Rainfall 0.33 in
Snow Depth Not available.
6:12 AM 8:07 PM
Waxing Crescent, 15% visible
METAR KCNC 291715Z AUTO 05015KT 2 1/2SM +RA BKN012 06/06 A3007 RMK AO2
Pressure 30.07 in
Visibility 2.5 miles
Clouds Mostly Cloudy 1200 ft
Windchill 41 °F
Dew Point 43 °F
Humidity 98%
Rainfall 0.33 in
Snow Depth Not available.
6:12 AM 8:07 PM
Waxing Crescent, 15% visible
METAR KCNC 291715Z AUTO 05015KT 2 1/2SM +RA BKN012 06/06 A3007 RMK AO2

Get Severe Weather Alerts

Thanks for signing up!

Be on the lookout for a verification email in your inbox.

You'll start receiving the daily forecast at 8 AM.

×

10-Day Weather Forecast

Almanac

Astronomy

Apr. 29, 2017 Rise Set
Actual Time
Civil Twilight
Nautical Twilight
Astronomical Twilight
Moon
Length of Visible Light
Length of Day
Tomorrow will be .
, % of the Moon is Illuminated

Today's Extremes

State Highs State Lows

Community

WunderPhotos

WunderBlog® & News

Nearby

Air Quality

  Air Quality AQ Index Pollutant
Not available.

Snow Depth

Station Depth Elevation

Earthquake Activity

City Distance Mag. Time & Date
Minimum magnitude displayed is 2.5.

Coastal Water Temperatures

Place Temperature

Stations

Nearby Weather Stations

Station Location Temp. Windchill Dew Point Humidity Wind Precip. Elev Updated Type
                   

Watches & Warnings

There are currently no watches in effect.